sensor_id;sensor_type;location;lat;lon;timestamp;P1;durP1;ratioP1;P2;durP2;ratioP2
23668;SDS011;12011;47.422;15.018;2023-04-06T00:02:24;4.96;;;4.91;;
23668;SDS011;12011;47.422;15.018;2023-04-06T00:04:56;4.34;;;4.31;;
23668;SDS011;12011;47.422;15.018;2023-04-06T00:07:31;4.41;;;4.36;;
23668;SDS011;12011;47.422;15.018;2023-04-06T00:10:03;5.09;;;5.03;;
23668;SDS011;12011;47.422;15.018;2023-04-06T00:12:39;4.18;;;4.14;;
23668;SDS011;12011;47.422;15.018;2023-04-06T00:15:12;4.17;;;4.14;;
23668;SDS011;12011;47.422;15.018;2023-04-06T00:17:51;5.12;;;5.08;;
23668;SDS011;12011;47.422;15.018;2023-04-06T00:20:27;5.70;;;5.60;;
23668;SDS011;12011;47.422;15.018;2023-04-06T00:23:03;5.69;;;5.66;;
23668;SDS011;12011;47.422;15.018;2023-04-06T00:25:34;4.26;;;4.22;;
23668;SDS011;12011;47.422;15.018;2023-04-06T00:28:06;4.21;;;4.13;;
23668;SDS011;12011;47.422;15.018;2023-04-06T00:30:36;4.55;;;4.45;;
23668;SDS011;12011;47.422;15.018;2023-04-06T00:33:11;3.90;;;3.83;;
23668;SDS011;12011;47.422;15.018;2023-04-06T00:35:44;4.34;;;4.28;;
23668;SDS011;12011;47.422;15.018;2023-04-06T00:38:16;3.50;;;3.45;;
23668;SDS011;12011;47.422;15.018;2023-04-06T00:40:51;4.34;;;4.30;;
23668;SDS011;12011;47.422;15.018;2023-04-06T00:43:26;5.14;;;5.08;;
23668;SDS011;12011;47.422;15.018;2023-04-06T00:46:00;4.87;;;4.84;;
23668;SDS011;12011;47.422;15.018;2023-04-06T00:48:35;3.52;;;3.49;;
23668;SDS011;12011;47.422;15.018;2023-04-06T00:51:06;3.22;;;3.20;;
23668;SDS011;12011;47.422;15.018;2023-04-06T00:53:36;3.53;;;3.52;;
23668;SDS011;12011;47.422;15.018;2023-04-06T00:56:15;3.42;;;3.39;;
23668;SDS011;12011;47.422;15.018;2023-04-06T00:58:52;3.65;;;3.60;;
23668;SDS011;12011;47.422;15.018;2023-04-06T01:01:24;3.75;;;3.70;;
23668;SDS011;12011;47.422;15.018;2023-04-06T01:04:06;3.48;;;3.44;;
23668;SDS011;12011;47.422;15.018;2023-04-06T01:06:40;3.45;;;3.43;;
23668;SDS011;12011;47.422;15.018;2023-04-06T01:09:13;3.44;;;3.43;;
23668;SDS011;12011;47.422;15.018;2023-04-06T01:11:52;3.19;;;3.18;;
23668;SDS011;12011;47.422;15.018;2023-04-06T01:14:29;3.55;;;3.54;;
23668;SDS011;12011;47.422;15.018;2023-04-06T01:17:00;3.60;;;3.58;;
23668;SDS011;12011;47.422;15.018;2023-04-06T01:19:48;3.56;;;3.55;;
23668;SDS011;12011;47.422;15.018;2023-04-06T01:22:29;3.65;;;3.63;;
23668;SDS011;12011;47.422;15.018;2023-04-06T01:25:02;4.22;;;4.18;;
23668;SDS011;12011;47.422;15.018;2023-04-06T01:27:42;3.57;;;3.53;;
23668;SDS011;12011;47.422;15.018;2023-04-06T01:30:33;3.04;;;3.00;;
23668;SDS011;12011;47.422;15.018;2023-04-06T01:33:12;3.26;;;3.24;;
23668;SDS011;12011;47.422;15.018;2023-04-06T01:36:09;3.82;;;3.80;;
23668;SDS011;12011;47.422;15.018;2023-04-06T01:39:04;3.53;;;3.52;;
23668;SDS011;12011;47.422;15.018;2023-04-06T01:41:37;3.25;;;3.24;;
23668;SDS011;12011;47.422;15.018;2023-04-06T01:44:20;3.79;;;3.78;;
23668;SDS011;12011;47.422;15.018;2023-04-06T01:47:01;4.04;;;4.03;;
23668;SDS011;12011;47.422;15.018;2023-04-06T01:49:31;3.85;;;3.82;;
23668;SDS011;12011;47.422;15.018;2023-04-06T01:52:05;2.88;;;2.85;;
23668;SDS011;12011;47.422;15.018;2023-04-06T01:54:43;3.10;;;3.10;;
23668;SDS011;12011;47.422;15.018;2023-04-06T01:57:21;3.49;;;3.47;;
23668;SDS011;12011;47.422;15.018;2023-04-06T02:00:07;3.31;;;3.29;;
23668;SDS011;12011;47.422;15.018;2023-04-06T02:02:48;3.16;;;3.15;;
23668;SDS011;12011;47.422;15.018;2023-04-06T02:05:25;3.09;;;3.08;;
23668;SDS011;12011;47.422;15.018;2023-04-06T02:07:59;3.41;;;3.40;;
23668;SDS011;12011;47.422;15.018;2023-04-06T02:10:37;3.31;;;3.30;;
23668;SDS011;12011;47.422;15.018;2023-04-06T02:13:18;2.99;;;2.98;;
23668;SDS011;12011;47.422;15.018;2023-04-06T02:15:53;3.47;;;3.45;;
23668;SDS011;12011;47.422;15.018;2023-04-06T02:21:03;2.88;;;2.85;;
23668;SDS011;12011;47.422;15.018;2023-04-06T02:23:36;3.33;;;3.29;;
23668;SDS011;12011;47.422;15.018;2023-04-06T02:26:11;3.20;;;3.17;;
23668;SDS011;12011;47.422;15.018;2023-04-06T02:28:46;3.82;;;3.78;;
23668;SDS011;12011;47.422;15.018;2023-04-06T02:31:17;3.68;;;3.62;;
23668;SDS011;12011;47.422;15.018;2023-04-06T02:33:52;3.73;;;3.62;;
23668;SDS011;12011;47.422;15.018;2023-04-06T02:36:34;3.70;;;3.66;;
23668;SDS011;12011;47.422;15.018;2023-04-06T02:39:08;3.25;;;3.24;;
23668;SDS011;12011;47.422;15.018;2023-04-06T02:41:45;3.10;;;3.10;;
23668;SDS011;12011;47.422;15.018;2023-04-06T02:44:20;3.61;;;3.61;;
23668;SDS011;12011;47.422;15.018;2023-04-06T02:46:51;5.72;;;5.66;;
23668;SDS011;12011;47.422;15.018;2023-04-06T02:49:25;4.72;;;4.68;;
23668;SDS011;12011;47.422;15.018;2023-04-06T02:51:58;3.64;;;3.62;;
23668;SDS011;12011;47.422;15.018;2023-04-06T02:54:33;3.12;;;3.10;;
23668;SDS011;12011;47.422;15.018;2023-04-06T02:57:11;3.61;;;3.60;;
23668;SDS011;12011;47.422;15.018;2023-04-06T02:59:47;3.68;;;3.67;;
23668;SDS011;12011;47.422;15.018;2023-04-06T03:02:25;3.65;;;3.65;;
23668;SDS011;12011;47.422;15.018;2023-04-06T03:05:04;3.37;;;3.36;;
23668;SDS011;12011;47.422;15.018;2023-04-06T03:07:42;3.52;;;3.51;;
23668;SDS011;12011;47.422;15.018;2023-04-06T03:10:24;3.38;;;3.36;;
23668;SDS011;12011;47.422;15.018;2023-04-06T03:13:05;3.76;;;3.74;;
23668;SDS011;12011;47.422;15.018;2023-04-06T03:15:51;3.02;;;3.00;;
23668;SDS011;12011;47.422;15.018;2023-04-06T03:18:23;3.55;;;3.52;;
23668;SDS011;12011;47.422;15.018;2023-04-06T03:20:56;3.57;;;3.55;;
23668;SDS011;12011;47.422;15.018;2023-04-06T03:23:46;4.19;;;4.15;;
23668;SDS011;12011;47.422;15.018;2023-04-06T03:26:17;3.66;;;3.61;;
23668;SDS011;12011;47.422;15.018;2023-04-06T03:28:54;3.63;;;3.57;;
23668;SDS011;12011;47.422;15.018;2023-04-06T03:31:32;4.17;;;4.10;;
23668;SDS011;12011;47.422;15.018;2023-04-06T03:34:13;3.78;;;3.75;;
23668;SDS011;12011;47.422;15.018;2023-04-06T03:36:53;3.95;;;3.91;;
23668;SDS011;12011;47.422;15.018;2023-04-06T03:39:29;3.57;;;3.53;;
23668;SDS011;12011;47.422;15.018;2023-04-06T03:42:02;3.90;;;3.86;;
23668;SDS011;12011;47.422;15.018;2023-04-06T03:44:37;4.65;;;4.59;;
23668;SDS011;12011;47.422;15.018;2023-04-06T03:47:09;4.20;;;4.16;;
23668;SDS011;12011;47.422;15.018;2023-04-06T03:49:43;5.50;;;5.45;;
23668;SDS011;12011;47.422;15.018;2023-04-06T03:52:14;10.06;;;9.86;;
23668;SDS011;12011;47.422;15.018;2023-04-06T03:54:44;6.72;;;6.62;;
23668;SDS011;12011;47.422;15.018;2023-04-06T03:57:16;4.43;;;4.38;;
23668;SDS011;12011;47.422;15.018;2023-04-06T03:59:50;3.62;;;3.57;;
23668;SDS011;12011;47.422;15.018;2023-04-06T04:02:24;4.00;;;3.96;;
23668;SDS011;12011;47.422;15.018;2023-04-06T04:04:58;4.79;;;4.69;;
23668;SDS011;12011;47.422;15.018;2023-04-06T04:07:30;4.26;;;4.14;;
23668;SDS011;12011;47.422;15.018;2023-04-06T04:10:04;4.43;;;4.29;;
23668;SDS011;12011;47.422;15.018;2023-04-06T04:12:40;3.91;;;3.84;;
23668;SDS011;12011;47.422;15.018;2023-04-06T04:15:23;3.67;;;3.62;;
23668;SDS011;12011;47.422;15.018;2023-04-06T04:17:57;3.60;;;3.57;;
23668;SDS011;12011;47.422;15.018;2023-04-06T04:20:28;3.80;;;3.77;;
23668;SDS011;12011;47.422;15.018;2023-04-06T04:23:00;3.70;;;3.66;;
23668;SDS011;12011;47.422;15.018;2023-04-06T04:25:38;4.00;;;3.96;;
23668;SDS011;12011;47.422;15.018;2023-04-06T04:28:07;3.84;;;3.82;;
23668;SDS011;12011;47.422;15.018;2023-04-06T04:30:42;3.65;;;3.62;;
23668;SDS011;12011;47.422;15.018;2023-04-06T04:33:17;4.38;;;4.28;;
23668;SDS011;12011;47.422;15.018;2023-04-06T04:35:49;3.96;;;3.89;;
23668;SDS011;12011;47.422;15.018;2023-04-06T04:38:22;3.95;;;3.88;;
23668;SDS011;12011;47.422;15.018;2023-04-06T04:40:55;4.08;;;4.01;;
23668;SDS011;12011;47.422;15.018;2023-04-06T04:43:26;4.10;;;4.05;;
23668;SDS011;12011;47.422;15.018;2023-04-06T04:46:04;4.54;;;4.49;;
23668;SDS011;12011;47.422;15.018;2023-04-06T04:48:40;3.72;;;3.69;;
23668;SDS011;12011;47.422;15.018;2023-04-06T04:51:14;3.86;;;3.83;;
23668;SDS011;12011;47.422;15.018;2023-04-06T04:54:04;4.00;;;3.96;;
23668;SDS011;12011;47.422;15.018;2023-04-06T04:56:41;3.89;;;3.83;;
23668;SDS011;12011;47.422;15.018;2023-04-06T04:59:34;3.96;;;3.88;;
23668;SDS011;12011;47.422;15.018;2023-04-06T05:02:20;5.32;;;5.21;;
23668;SDS011;12011;47.422;15.018;2023-04-06T05:05:09;5.16;;;5.07;;
23668;SDS011;12011;47.422;15.018;2023-04-06T05:07:42;4.68;;;4.63;;
23668;SDS011;12011;47.422;15.018;2023-04-06T05:10:25;4.90;;;4.85;;
23668;SDS011;12011;47.422;15.018;2023-04-06T05:13:03;4.29;;;4.25;;
23668;SDS011;12011;47.422;15.018;2023-04-06T05:15:34;4.73;;;4.68;;
23668;SDS011;12011;47.422;15.018;2023-04-06T05:18:18;4.75;;;4.66;;
23668;SDS011;12011;47.422;15.018;2023-04-06T05:20:48;4.14;;;4.09;;
23668;SDS011;12011;47.422;15.018;2023-04-06T05:23:22;4.22;;;4.13;;
23668;SDS011;12011;47.422;15.018;2023-04-06T05:25:52;4.57;;;4.53;;
23668;SDS011;12011;47.422;15.018;2023-04-06T05:28:22;4.93;;;4.90;;
23668;SDS011;12011;47.422;15.018;2023-04-06T05:30:53;5.13;;;5.11;;
23668;SDS011;12011;47.422;15.018;2023-04-06T05:33:25;4.63;;;4.61;;
23668;SDS011;12011;47.422;15.018;2023-04-06T05:36:06;4.85;;;4.80;;
23668;SDS011;12011;47.422;15.018;2023-04-06T05:38:41;6.04;;;5.93;;
23668;SDS011;12011;47.422;15.018;2023-04-06T05:41:31;5.21;;;5.10;;
23668;SDS011;12011;47.422;15.018;2023-04-06T05:44:01;5.38;;;5.29;;
23668;SDS011;12011;47.422;15.018;2023-04-06T05:46:32;6.00;;;5.90;;
23668;SDS011;12011;47.422;15.018;2023-04-06T05:49:05;5.46;;;5.37;;
23668;SDS011;12011;47.422;15.018;2023-04-06T05:51:35;7.09;;;6.98;;
23668;SDS011;12011;47.422;15.018;2023-04-06T05:54:06;6.92;;;6.83;;
23668;SDS011;12011;47.422;15.018;2023-04-06T05:56:36;5.60;;;5.56;;
23668;SDS011;12011;47.422;15.018;2023-04-06T05:59:09;5.55;;;5.52;;
23668;SDS011;12011;47.422;15.018;2023-04-06T06:01:39;5.52;;;5.48;;
23668;SDS011;12011;47.422;15.018;2023-04-06T06:04:12;6.39;;;6.31;;
23668;SDS011;12011;47.422;15.018;2023-04-06T06:06:44;7.30;;;7.24;;
23668;SDS011;12011;47.422;15.018;2023-04-06T06:09:17;9.03;;;8.84;;
23668;SDS011;12011;47.422;15.018;2023-04-06T06:11:59;6.52;;;6.37;;
23668;SDS011;12011;47.422;15.018;2023-04-06T06:14:30;6.34;;;6.26;;
23668;SDS011;12011;47.422;15.018;2023-04-06T06:16:59;8.87;;;8.66;;
23668;SDS011;12011;47.422;15.018;2023-04-06T06:19:32;8.92;;;8.64;;
23668;SDS011;12011;47.422;15.018;2023-04-06T06:22:05;7.37;;;7.20;;
23668;SDS011;12011;47.422;15.018;2023-04-06T06:24:40;5.89;;;5.83;;
23668;SDS011;12011;47.422;15.018;2023-04-06T06:27:11;6.04;;;5.96;;
23668;SDS011;12011;47.422;15.018;2023-04-06T06:29:41;6.52;;;6.41;;
23668;SDS011;12011;47.422;15.018;2023-04-06T06:32:11;5.98;;;5.87;;
23668;SDS011;12011;47.422;15.018;2023-04-06T06:34:44;6.03;;;5.97;;
23668;SDS011;12011;47.422;15.018;2023-04-06T06:37:14;4.63;;;4.59;;
23668;SDS011;12011;47.422;15.018;2023-04-06T06:39:44;4.24;;;4.23;;
23668;SDS011;12011;47.422;15.018;2023-04-06T06:42:13;3.45;;;3.45;;
23668;SDS011;12011;47.422;15.018;2023-04-06T06:44:55;3.95;;;3.94;;
23668;SDS011;12011;47.422;15.018;2023-04-06T06:47:25;3.43;;;3.43;;
23668;SDS011;12011;47.422;15.018;2023-04-06T06:49:58;3.10;;;3.10;;
23668;SDS011;12011;47.422;15.018;2023-04-06T06:52:29;3.32;;;3.31;;
23668;SDS011;12011;47.422;15.018;2023-04-06T06:54:59;3.29;;;3.28;;
23668;SDS011;12011;47.422;15.018;2023-04-06T06:57:29;3.26;;;3.26;;
23668;SDS011;12011;47.422;15.018;2023-04-06T06:59:59;3.58;;;3.57;;
23668;SDS011;12011;47.422;15.018;2023-04-06T07:02:29;3.84;;;3.83;;
23668;SDS011;12011;47.422;15.018;2023-04-06T07:05:02;4.01;;;4.01;;
23668;SDS011;12011;47.422;15.018;2023-04-06T07:07:34;3.61;;;3.59;;
23668;SDS011;12011;47.422;15.018;2023-04-06T07:10:04;3.78;;;3.77;;
23668;SDS011;12011;47.422;15.018;2023-04-06T07:12:37;4.01;;;4.00;;
23668;SDS011;12011;47.422;15.018;2023-04-06T07:15:07;3.75;;;3.75;;
23668;SDS011;12011;47.422;15.018;2023-04-06T07:17:38;3.88;;;3.88;;
23668;SDS011;12011;47.422;15.018;2023-04-06T07:20:14;3.65;;;3.64;;
23668;SDS011;12011;47.422;15.018;2023-04-06T07:22:44;3.53;;;3.52;;
23668;SDS011;12011;47.422;15.018;2023-04-06T07:25:14;3.42;;;3.42;;
23668;SDS011;12011;47.422;15.018;2023-04-06T07:27:44;3.58;;;3.58;;
23668;SDS011;12011;47.422;15.018;2023-04-06T07:30:14;3.49;;;3.49;;
23668;SDS011;12011;47.422;15.018;2023-04-06T07:32:44;3.24;;;3.24;;
23668;SDS011;12011;47.422;15.018;2023-04-06T07:35:18;3.30;;;3.30;;
23668;SDS011;12011;47.422;15.018;2023-04-06T07:37:48;3.24;;;3.23;;
23668;SDS011;12011;47.422;15.018;2023-04-06T07:40:18;3.32;;;3.32;;
23668;SDS011;12011;47.422;15.018;2023-04-06T07:42:49;3.20;;;3.20;;
23668;SDS011;12011;47.422;15.018;2023-04-06T07:45:19;2.97;;;2.97;;
23668;SDS011;12011;47.422;15.018;2023-04-06T07:47:50;2.81;;;2.81;;
23668;SDS011;12011;47.422;15.018;2023-04-06T07:50:23;2.64;;;2.64;;
23668;SDS011;12011;47.422;15.018;2023-04-06T07:52:53;2.25;;;2.25;;
23668;SDS011;12011;47.422;15.018;2023-04-06T07:55:23;2.26;;;2.26;;
23668;SDS011;12011;47.422;15.018;2023-04-06T07:57:53;1.96;;;1.96;;
23668;SDS011;12011;47.422;15.018;2023-04-06T08:00:23;1.92;;;1.92;;
23668;SDS011;12011;47.422;15.018;2023-04-06T08:02:53;2.20;;;2.20;;
23668;SDS011;12011;47.422;15.018;2023-04-06T08:05:25;2.33;;;2.33;;
23668;SDS011;12011;47.422;15.018;2023-04-06T08:07:55;2.21;;;2.21;;
23668;SDS011;12011;47.422;15.018;2023-04-06T08:10:25;2.17;;;2.17;;
23668;SDS011;12011;47.422;15.018;2023-04-06T08:12:55;2.18;;;2.18;;
23668;SDS011;12011;47.422;15.018;2023-04-06T08:15:24;2.16;;;2.16;;
23668;SDS011;12011;47.422;15.018;2023-04-06T08:17:54;1.94;;;1.94;;
23668;SDS011;12011;47.422;15.018;2023-04-06T08:20:27;1.99;;;1.99;;
23668;SDS011;12011;47.422;15.018;2023-04-06T08:22:57;2.00;;;2.00;;
23668;SDS011;12011;47.422;15.018;2023-04-06T08:25:27;2.02;;;2.02;;
23668;SDS011;12011;47.422;15.018;2023-04-06T08:27:56;1.93;;;1.93;;
23668;SDS011;12011;47.422;15.018;2023-04-06T08:30:26;1.87;;;1.87;;
23668;SDS011;12011;47.422;15.018;2023-04-06T08:32:56;1.93;;;1.93;;
23668;SDS011;12011;47.422;15.018;2023-04-06T08:35:28;1.93;;;1.93;;
23668;SDS011;12011;47.422;15.018;2023-04-06T08:37:58;1.74;;;1.74;;
23668;SDS011;12011;47.422;15.018;2023-04-06T08:40:28;1.69;;;1.69;;
23668;SDS011;12011;47.422;15.018;2023-04-06T08:42:59;1.97;;;1.97;;
23668;SDS011;12011;47.422;15.018;2023-04-06T08:45:34;1.69;;;1.69;;
23668;SDS011;12011;47.422;15.018;2023-04-06T08:48:04;1.93;;;1.93;;
23668;SDS011;12011;47.422;15.018;2023-04-06T08:50:38;1.77;;;1.77;;
23668;SDS011;12011;47.422;15.018;2023-04-06T08:53:08;1.79;;;1.79;;
23668;SDS011;12011;47.422;15.018;2023-04-06T08:55:40;1.87;;;1.87;;
23668;SDS011;12011;47.422;15.018;2023-04-06T08:58:12;1.91;;;1.91;;
23668;SDS011;12011;47.422;15.018;2023-04-06T09:00:44;1.79;;;1.79;;
23668;SDS011;12011;47.422;15.018;2023-04-06T09:03:14;1.80;;;1.80;;
23668;SDS011;12011;47.422;15.018;2023-04-06T09:05:48;1.81;;;1.81;;
23668;SDS011;12011;47.422;15.018;2023-04-06T09:08:19;1.75;;;1.75;;
23668;SDS011;12011;47.422;15.018;2023-04-06T09:10:49;1.69;;;1.69;;
23668;SDS011;12011;47.422;15.018;2023-04-06T09:13:18;1.97;;;1.97;;
23668;SDS011;12011;47.422;15.018;2023-04-06T09:15:57;1.80;;;1.80;;
23668;SDS011;12011;47.422;15.018;2023-04-06T09:18:29;1.57;;;1.57;;
23668;SDS011;12011;47.422;15.018;2023-04-06T09:21:03;1.81;;;1.81;;
23668;SDS011;12011;47.422;15.018;2023-04-06T09:23:36;1.58;;;1.58;;
23668;SDS011;12011;47.422;15.018;2023-04-06T09:26:07;1.58;;;1.58;;
23668;SDS011;12011;47.422;15.018;2023-04-06T09:28:44;1.54;;;1.54;;
23668;SDS011;12011;47.422;15.018;2023-04-06T09:31:22;1.44;;;1.44;;
23668;SDS011;12011;47.422;15.018;2023-04-06T09:33:56;1.75;;;1.75;;
23668;SDS011;12011;47.422;15.018;2023-04-06T09:36:32;1.50;;;1.50;;
23668;SDS011;12011;47.422;15.018;2023-04-06T09:39:06;1.56;;;1.56;;
23668;SDS011;12011;47.422;15.018;2023-04-06T09:41:37;1.48;;;1.48;;
23668;SDS011;12011;47.422;15.018;2023-04-06T09:44:08;1.36;;;1.36;;
23668;SDS011;12011;47.422;15.018;2023-04-06T09:46:39;1.51;;;1.51;;
23668;SDS011;12011;47.422;15.018;2023-04-06T09:49:11;1.67;;;1.67;;
23668;SDS011;12011;47.422;15.018;2023-04-06T09:51:45;1.40;;;1.40;;
23668;SDS011;12011;47.422;15.018;2023-04-06T09:54:21;1.49;;;1.49;;
23668;SDS011;12011;47.422;15.018;2023-04-06T09:57:00;1.47;;;1.47;;
23668;SDS011;12011;47.422;15.018;2023-04-06T09:59:38;1.27;;;1.27;;
23668;SDS011;12011;47.422;15.018;2023-04-06T10:02:22;1.37;;;1.37;;
23668;SDS011;12011;47.422;15.018;2023-04-06T10:05:09;1.55;;;1.55;;
23668;SDS011;12011;47.422;15.018;2023-04-06T10:07:50;1.51;;;1.51;;
23668;SDS011;12011;47.422;15.018;2023-04-06T10:10:26;1.38;;;1.38;;
23668;SDS011;12011;47.422;15.018;2023-04-06T10:12:57;1.45;;;1.45;;
23668;SDS011;12011;47.422;15.018;2023-04-06T10:15:28;1.55;;;1.55;;
23668;SDS011;12011;47.422;15.018;2023-04-06T10:17:59;1.26;;;1.26;;
23668;SDS011;12011;47.422;15.018;2023-04-06T10:20:31;1.43;;;1.43;;
23668;SDS011;12011;47.422;15.018;2023-04-06T10:23:13;1.49;;;1.49;;
23668;SDS011;12011;47.422;15.018;2023-04-06T10:25:53;1.24;;;1.24;;
23668;SDS011;12011;47.422;15.018;2023-04-06T10:28:24;1.46;;;1.46;;
23668;SDS011;12011;47.422;15.018;2023-04-06T10:31:00;1.59;;;1.59;;
23668;SDS011;12011;47.422;15.018;2023-04-06T10:33:34;1.34;;;1.34;;
23668;SDS011;12011;47.422;15.018;2023-04-06T10:36:10;1.27;;;1.27;;
23668;SDS011;12011;47.422;15.018;2023-04-06T10:38:43;1.36;;;1.36;;
23668;SDS011;12011;47.422;15.018;2023-04-06T10:41:16;1.27;;;1.27;;
23668;SDS011;12011;47.422;15.018;2023-04-06T10:43:53;1.32;;;1.32;;
23668;SDS011;12011;47.422;15.018;2023-04-06T10:46:25;1.38;;;1.38;;
23668;SDS011;12011;47.422;15.018;2023-04-06T10:48:57;1.26;;;1.26;;
23668;SDS011;12011;47.422;15.018;2023-04-06T10:51:39;1.36;;;1.36;;
23668;SDS011;12011;47.422;15.018;2023-04-06T10:54:11;1.22;;;1.22;;
23668;SDS011;12011;47.422;15.018;2023-04-06T10:56:42;1.29;;;1.29;;
23668;SDS011;12011;47.422;15.018;2023-04-06T10:59:12;1.23;;;1.23;;
23668;SDS011;12011;47.422;15.018;2023-04-06T11:01:44;1.19;;;1.19;;
23668;SDS011;12011;47.422;15.018;2023-04-06T11:04:15;1.24;;;1.24;;
23668;SDS011;12011;47.422;15.018;2023-04-06T11:06:49;1.37;;;1.37;;
23668;SDS011;12011;47.422;15.018;2023-04-06T11:09:26;1.25;;;1.25;;
23668;SDS011;12011;47.422;15.018;2023-04-06T11:11:57;1.25;;;1.25;;
23668;SDS011;12011;47.422;15.018;2023-04-06T11:14:27;1.18;;;1.18;;
23668;SDS011;12011;47.422;15.018;2023-04-06T11:16:57;1.44;;;1.44;;
23668;SDS011;12011;47.422;15.018;2023-04-06T11:19:27;1.18;;;1.18;;
23668;SDS011;12011;47.422;15.018;2023-04-06T11:21:56;1.38;;;1.38;;
23668;SDS011;12011;47.422;15.018;2023-04-06T11:24:39;1.21;;;1.21;;
23668;SDS011;12011;47.422;15.018;2023-04-06T11:27:08;1.33;;;1.33;;
23668;SDS011;12011;47.422;15.018;2023-04-06T11:29:40;1.29;;;1.29;;
23668;SDS011;12011;47.422;15.018;2023-04-06T11:32:11;1.33;;;1.33;;
23668;SDS011;12011;47.422;15.018;2023-04-06T11:34:50;1.14;;;1.14;;
23668;SDS011;12011;47.422;15.018;2023-04-06T11:37:19;1.26;;;1.26;;
23668;SDS011;12011;47.422;15.018;2023-04-06T11:39:54;1.24;;;1.24;;
23668;SDS011;12011;47.422;15.018;2023-04-06T11:42:24;1.16;;;1.16;;
23668;SDS011;12011;47.422;15.018;2023-04-06T11:44:56;1.21;;;1.21;;
23668;SDS011;12011;47.422;15.018;2023-04-06T11:47:27;1.23;;;1.23;;
23668;SDS011;12011;47.422;15.018;2023-04-06T11:50:05;1.30;;;1.30;;
23668;SDS011;12011;47.422;15.018;2023-04-06T11:52:37;1.31;;;1.31;;
23668;SDS011;12011;47.422;15.018;2023-04-06T11:55:15;1.23;;;1.23;;
23668;SDS011;12011;47.422;15.018;2023-04-06T11:57:47;1.46;;;1.46;;
23668;SDS011;12011;47.422;15.018;2023-04-06T12:00:17;1.41;;;1.41;;
23668;SDS011;12011;47.422;15.018;2023-04-06T12:02:49;1.38;;;1.38;;
23668;SDS011;12011;47.422;15.018;2023-04-06T12:05:19;1.42;;;1.42;;
23668;SDS011;12011;47.422;15.018;2023-04-06T12:07:49;1.26;;;1.26;;
23668;SDS011;12011;47.422;15.018;2023-04-06T12:10:21;1.29;;;1.29;;
23668;SDS011;12011;47.422;15.018;2023-04-06T12:12:51;1.36;;;1.36;;
23668;SDS011;12011;47.422;15.018;2023-04-06T12:15:21;1.24;;;1.24;;
23668;SDS011;12011;47.422;15.018;2023-04-06T12:17:51;1.30;;;1.30;;
23668;SDS011;12011;47.422;15.018;2023-04-06T12:20:21;1.33;;;1.33;;
23668;SDS011;12011;47.422;15.018;2023-04-06T12:22:51;1.26;;;1.26;;
23668;SDS011;12011;47.422;15.018;2023-04-06T12:25:23;1.06;;;1.06;;
23668;SDS011;12011;47.422;15.018;2023-04-06T12:27:53;1.39;;;1.39;;
23668;SDS011;12011;47.422;15.018;2023-04-06T12:30:23;1.27;;;1.27;;
23668;SDS011;12011;47.422;15.018;2023-04-06T12:32:53;1.40;;;1.40;;
23668;SDS011;12011;47.422;15.018;2023-04-06T12:35:22;1.23;;;1.23;;
23668;SDS011;12011;47.422;15.018;2023-04-06T12:37:52;1.22;;;1.22;;
23668;SDS011;12011;47.422;15.018;2023-04-06T12:40:26;1.29;;;1.29;;
23668;SDS011;12011;47.422;15.018;2023-04-06T12:42:56;1.26;;;1.26;;
23668;SDS011;12011;47.422;15.018;2023-04-06T12:45:26;1.40;;;1.40;;
23668;SDS011;12011;47.422;15.018;2023-04-06T12:47:56;1.30;;;1.30;;
23668;SDS011;12011;47.422;15.018;2023-04-06T12:50:26;1.30;;;1.30;;
23668;SDS011;12011;47.422;15.018;2023-04-06T12:52:57;1.28;;;1.28;;
23668;SDS011;12011;47.422;15.018;2023-04-06T12:55:31;1.39;;;1.39;;
23668;SDS011;12011;47.422;15.018;2023-04-06T12:58:02;1.32;;;1.32;;
23668;SDS011;12011;47.422;15.018;2023-04-06T13:00:32;1.19;;;1.19;;
23668;SDS011;12011;47.422;15.018;2023-04-06T13:03:02;1.24;;;1.24;;
23668;SDS011;12011;47.422;15.018;2023-04-06T13:05:33;1.41;;;1.41;;
23668;SDS011;12011;47.422;15.018;2023-04-06T13:08:03;1.12;;;1.12;;
23668;SDS011;12011;47.422;15.018;2023-04-06T13:10:36;1.36;;;1.36;;
23668;SDS011;12011;47.422;15.018;2023-04-06T13:13:06;1.18;;;1.18;;
23668;SDS011;12011;47.422;15.018;2023-04-06T13:15:36;1.13;;;1.13;;
23668;SDS011;12011;47.422;15.018;2023-04-06T13:18:06;1.36;;;1.36;;
23668;SDS011;12011;47.422;15.018;2023-04-06T13:20:36;1.49;;;1.49;;
23668;SDS011;12011;47.422;15.018;2023-04-06T13:23:05;1.49;;;1.49;;
23668;SDS011;12011;47.422;15.018;2023-04-06T13:25:38;1.54;;;1.54;;
23668;SDS011;12011;47.422;15.018;2023-04-06T13:28:09;1.19;;;1.19;;
23668;SDS011;12011;47.422;15.018;2023-04-06T13:30:39;1.48;;;1.48;;
23668;SDS011;12011;47.422;15.018;2023-04-06T13:33:09;1.35;;;1.35;;
23668;SDS011;12011;47.422;15.018;2023-04-06T13:35:39;1.28;;;1.28;;
23668;SDS011;12011;47.422;15.018;2023-04-06T13:38:13;1.39;;;1.39;;
23668;SDS011;12011;47.422;15.018;2023-04-06T13:40:45;1.32;;;1.32;;
23668;SDS011;12011;47.422;15.018;2023-04-06T13:43:15;1.34;;;1.34;;
23668;SDS011;12011;47.422;15.018;2023-04-06T13:45:49;1.53;;;1.53;;
23668;SDS011;12011;47.422;15.018;2023-04-06T13:48:19;1.36;;;1.36;;
23668;SDS011;12011;47.422;15.018;2023-04-06T13:50:51;1.36;;;1.36;;
23668;SDS011;12011;47.422;15.018;2023-04-06T13:53:21;1.41;;;1.41;;
23668;SDS011;12011;47.422;15.018;2023-04-06T13:55:56;1.37;;;1.37;;
23668;SDS011;12011;47.422;15.018;2023-04-06T13:58:25;1.51;;;1.51;;
23668;SDS011;12011;47.422;15.018;2023-04-06T14:00:55;1.39;;;1.39;;
23668;SDS011;12011;47.422;15.018;2023-04-06T14:03:31;1.60;;;1.60;;
23668;SDS011;12011;47.422;15.018;2023-04-06T14:06:09;1.45;;;1.45;;
23668;SDS011;12011;47.422;15.018;2023-04-06T14:08:39;1.28;;;1.28;;
23668;SDS011;12011;47.422;15.018;2023-04-06T14:11:13;1.35;;;1.35;;
23668;SDS011;12011;47.422;15.018;2023-04-06T14:13:43;1.43;;;1.43;;
23668;SDS011;12011;47.422;15.018;2023-04-06T14:16:13;1.30;;;1.30;;
23668;SDS011;12011;47.422;15.018;2023-04-06T14:18:45;1.44;;;1.43;;
23668;SDS011;12011;47.422;15.018;2023-04-06T14:21:14;1.40;;;1.40;;
23668;SDS011;12011;47.422;15.018;2023-04-06T14:23:44;1.43;;;1.43;;
23668;SDS011;12011;47.422;15.018;2023-04-06T14:26:17;1.40;;;1.39;;
23668;SDS011;12011;47.422;15.018;2023-04-06T14:28:46;1.54;;;1.54;;
23668;SDS011;12011;47.422;15.018;2023-04-06T14:31:18;1.64;;;1.64;;
23668;SDS011;12011;47.422;15.018;2023-04-06T14:33:48;1.28;;;1.27;;
23668;SDS011;12011;47.422;15.018;2023-04-06T14:36:17;1.33;;;1.32;;
23668;SDS011;12011;47.422;15.018;2023-04-06T14:38:47;1.33;;;1.33;;
23668;SDS011;12011;47.422;15.018;2023-04-06T14:41:21;1.27;;;1.27;;
23668;SDS011;12011;47.422;15.018;2023-04-06T14:43:52;1.26;;;1.26;;
23668;SDS011;12011;47.422;15.018;2023-04-06T14:46:22;1.45;;;1.45;;
23668;SDS011;12011;47.422;15.018;2023-04-06T14:48:52;1.45;;;1.45;;
23668;SDS011;12011;47.422;15.018;2023-04-06T14:51:24;1.30;;;1.30;;
23668;SDS011;12011;47.422;15.018;2023-04-06T14:53:54;1.44;;;1.44;;
23668;SDS011;12011;47.422;15.018;2023-04-06T14:56:27;1.54;;;1.54;;
23668;SDS011;12011;47.422;15.018;2023-04-06T14:58:57;1.37;;;1.37;;
23668;SDS011;12011;47.422;15.018;2023-04-06T15:01:28;1.59;;;1.59;;
23668;SDS011;12011;47.422;15.018;2023-04-06T15:03:57;1.39;;;1.39;;
23668;SDS011;12011;47.422;15.018;2023-04-06T15:06:27;1.62;;;1.62;;
23668;SDS011;12011;47.422;15.018;2023-04-06T15:08:57;1.48;;;1.48;;
23668;SDS011;12011;47.422;15.018;2023-04-06T15:11:29;1.44;;;1.44;;
23668;SDS011;12011;47.422;15.018;2023-04-06T15:13:59;1.61;;;1.61;;